Friday, September 21, 2018, 9:27 PM EDT
Back to Local

KOXC, Oxford, Waterbury-oxford Airport

Location: Oxford, CT, United States Lat: 41.483
Local Time: 9:27 PM EDT ( 1:27 GMT) Lon: -73.133
Time Zone: US/Eastern Elev: 725 ft

Show me the last for .
Show Decoded

2018-09-21 21:07 METAR KOXC 220107Z AUTO 19012G15KT 10SM FEW013 OVC025 19/18 A3002 RMK AO2 PWINO
                 =
2018-09-21 20:51 METAR KOXC 220051Z 20011G16KT 10SM BKN013 OVC025 19/18 A3001 RMK AO2 SLP170
                 T01940178 =
2018-09-21 18:51 METAR KOXC 212251Z 18009G17KT 10SM OVC015 19/17 A3005 RMK AO2 SLP183 T01940172 =
2018-09-21 17:51 METAR KOXC 212151Z 18008KT 10SM BKN019 OVC027 19/17 A3008 RMK AO2 SLP196
                 T01890167 =
2018-09-21 16:51 METAR KOXC 212051Z 18009G16KT 10SM OVC019 19/16 A3010 RMK AO2 SLP203 T01940161
                 58024 =
2018-09-21 15:51 METAR KOXC 211951Z 18009KT 10SM BKN023 OVC040 19/16 A3013 RMK AO2 SLP212
                 T01940161 =
2018-09-21 14:51 METAR KOXC 211851Z 19010KT 10SM BKN023 OVC034 19/16 A3015 RMK AO2 SLP220
                 T01940156 =
2018-09-21 13:51 METAR KOXC 211751Z 18012G16KT 10SM BKN021 OVC030 19/16 A3018 RMK AO2 SLP228
                 T01940156 10200 20167 58025 =
2018-09-21 13:21 METAR KOXC 211721Z 18010G17KT 10SM SCT023 OVC030 20/16 A3019 RMK AO2 =
2018-09-21 12:51 METAR KOXC 211651Z 18011KT 10SM BKN021 OVC026 19/16 A3020 RMK AO2 SLP238
                 T01890156 =
2018-09-21 11:51 METAR KOXC 211551Z 18011G16KT 10SM BKN019 OVC033 19/16 A3022 =
2018-09-21 10:51 METAR KOXC 211451Z 18012KT 10SM BKN019 OVC032 18/15 A3025 RMK AO2 SLP254
                 T01830150 58013 =
2018-09-21 09:51 METAR KOXC 211351Z 17011KT 10SM BKN014 OVC034 18/16 A3026 RMK AO2 SLP258
                 T01780156 =
2018-09-21 09:23 METAR KOXC 211323Z 15008KT 10SM FEW013 OVC032 18/16 A3026 RMK AO2 =
2018-09-21 08:51 METAR KOXC 211251Z 17007KT 10SM FEW016 SCT026 OVC034 17/16 A3028 RMK AO2 SLP264
                 T01720161 =
2018-09-21 07:51 METAR KOXC 211151Z 18004KT 10SM SCT016 BKN023 OVC030 17/16 A3029 RMK AO2 SLP267
                 T01670156 10167 20161 52005 =
2018-09-21 07:01 METAR KOXC 211101Z 16007KT 10SM SCT014 BKN023 OVC033 17/16 A3028 RMK AO2 =
2018-09-21 06:51 METAR KOXC 211051Z 17008KT 10SM FEW014 SCT025 OVC033 17/16 A3028 RMK AO2 SLP264
                 T01670156 =
2018-09-21 06:29 METAR KOXC 211029Z 17006KT 10SM OVC031 17/16 A3028 RMK AO2 =
2018-09-21 05:51 METAR KOXC 210951Z AUTO 17006KT 10SM OVC025 17/16 A3028 RMK AO2 SLP263 T01670156
                 PWINO =
2018-09-21 05:03 METAR KOXC 210903Z AUTO 16005KT 10SM SCT004 OVC022 16/16 A3027 RMK AO2 PWINO =
2018-09-21 04:51 METAR KOXC 210851Z AUTO 16004KT 10SM BKN004 BKN011 OVC022 16/16 A3027 RMK AO2
                 CIG 003V008 SLP260 T01610161 53000 PWINO =
2018-09-21 04:37 METAR KOXC 210837Z AUTO 16005KT 9SM BKN004 BKN011 OVC028 16/16 A3027 RMK AO2
                 PWINO =
2018-09-21 04:28 METAR KOXC 210828Z AUTO 16005KT 9SM SCT004 BKN011 OVC030 16/16 A3026 RMK AO2
                 PWINO =
2018-09-21 04:07 METAR KOXC 210807Z AUTO 15006KT 10SM FEW006 SCT011 OVC033 16/16 A3026 RMK AO2
                 PWINO =
2018-09-21 03:51 METAR KOXC 210751Z AUTO 16005KT 10SM FEW006 BKN010 OVC035 16/16 A3027 RMK AO2
                 CIG 007V012 SLP257 T01610156 PWINO =
2018-09-21 03:42 METAR KOXC 210742Z AUTO 15005KT 10SM SCT004 OVC010 16/16 A3027 RMK AO2 CIG
                 007V013 PWINO =
2018-09-21 02:51 METAR KOXC 210651Z AUTO 15005KT 10SM OVC004 16/16 A3027 RMK AO2 CIG 003V008
                 SLP260 T01610156 PWINO =
2018-09-21 02:18 METAR KOXC 210618Z AUTO 14005KT 10SM BKN006 OVC010 16/16 A3027 RMK AO2 CIG
                 003V009 PWINO =
2018-09-21 02:09 METAR KOXC 210609Z AUTO 15005KT 10SM SCT006 OVC011 16/16 A3027 RMK AO2 PWINO =
2018-09-21 01:51 METAR KOXC 210551Z AUTO 14006KT 10SM BKN006 OVC011 16/16 A3027 RMK AO2 CIG
                 004V009 SLP262 T01610156 10178 20161 58004 PWINO =
2018-09-21 01:46 METAR KOXC 210546Z AUTO 14006KT 10SM BKN006 OVC011 16/16 A3028 RMK AO2 CIG
                 004V009 PWINO =
2018-09-21 00:51 METAR KOXC 210451Z AUTO 17004KT 10SM OVC004 16/16 A3029 RMK AO2 SLP266 T01610156
                 402170144 PWINO =
2018-09-21 00:19 METAR KOXC 210419Z AUTO 16004KT 10SM BKN004 OVC050 16/16 A3029 RMK AO2 PWINO =
2018-09-21 00:08 METAR KOXC 210408Z AUTO 15006KT 10SM BKN006 BKN013 OVC050 17/16 A3028 RMK AO2
                 PWINO =
2018-09-20 23:51 METAR KOXC 210351Z AUTO 14007KT 10SM SCT008 BKN013 OVC050 17/16 A3028 RMK AO2
                 SLP266 T01670156 PWINO =
2018-09-20 23:25 METAR KOXC 210325Z AUTO 14006KT 10SM BKN008 OVC013 17/16 A3029 RMK AO2 PWINO =
2018-09-20 22:51 METAR KOXC 210251Z AUTO 13005KT 10SM OVC010 17/16 A3028 RMK AO2 SLP266 T01720156
                 51009 PWINO =
2018-09-20 22:14 METAR KOXC 210214Z AUTO 14007KT 10SM BKN014 OVC045 17/16 A3028 RMK AO2 PWINO =
2018-09-20 21:51 METAR KOXC 210151Z AUTO 14007KT 10SM FEW016 SCT035 OVC043 17/16 A3028 RMK AO2
                 SLP266 T01720156 PWINO =

Support USWX by starting your Amazon purchase here.